Time;durP1;ratioP1;P1;durP2;ratioP2;P2;SDS_P1;SDS_P2;PMS_P1;PMS_P2;Temp;Humidity;BMP_temperature;BMP_pressure;BME280_temperature;BME280_humidity;BME280_pressure;Samples;Min_cycle;Max_cycle;Signal;HPM_P1;HPM_P2
2022/11/06 00:00:31;;;;;;;;;0.00;0.00;;;;;;;;4771109;29;8869;-94
2022/11/06 00:02:58;;;;;;;;;0.00;0.00;;;;;;;;4771585;29;8849;-94
2022/11/06 00:08:07;;;;;;;;;0.00;0.00;;;;;;;;4787485;29;8838;-95
2022/11/06 00:10:32;;;;;;;;;0.00;0.00;;;;;;;;4755173;29;9246;-94
2022/11/06 00:12:58;;;;;;;;;0.00;0.00;;;;;;;;4771633;29;8891;-93
2022/11/06 00:15:24;;;;;;;;;0.00;0.00;;;;;;;;4774919;29;8881;-93
2022/11/06 00:17:49;;;;;;;;;0.00;0.00;;;;;;;;4775335;29;9013;-94
2022/11/06 00:20:14;;;;;;;;;0.00;0.00;;;;;;;;4773849;29;8968;-92
2022/11/06 00:22:40;;;;;;;;;0.00;0.00;;;;;;;;4771390;29;9630;-92
2022/11/06 00:25:06;;;;;;;;;0.00;0.00;;;;;;;;4772335;29;8889;-94
2022/11/06 00:27:33;;;;;;;;;0.00;0.00;;;;;;;;4771750;29;8972;-94
2022/11/06 00:29:59;;;;;;;;;0.00;0.00;;;;;;;;4771246;29;8849;-94
2022/11/06 00:32:24;;;;;;;;;0.00;0.00;;;;;;;;4770831;29;8976;-94
2022/11/06 00:34:49;;;;;;;;;0.00;0.00;;;;;;;;4770974;29;8873;-94
2022/11/06 00:37:14;;;;;;;;;0.00;0.00;;;;;;;;4770700;29;8861;-94
2022/11/06 00:39:39;;;;;;;;;0.00;0.00;;;;;;;;4771212;29;8947;-94
2022/11/06 00:42:05;;;;;;;;;0.00;0.00;;;;;;;;4753930;30;8884;-92
2022/11/06 00:44:30;;;;;;;;;0.00;0.00;;;;;;;;4752753;30;8957;-94
2022/11/06 00:46:55;;;;;;;;;0.00;0.00;;;;;;;;4782628;29;8969;-94
2022/11/06 00:49:20;;;;;;;;;0.00;0.00;;;;;;;;4782922;29;8876;-94
2022/11/06 00:51:45;;;;;;;;;0.00;0.00;;;;;;;;4782487;29;9659;-94
2022/11/06 00:54:11;;;;;;;;;0.00;0.00;;;;;;;;4782628;29;8887;-94
2022/11/06 00:56:37;;;;;;;;;0.00;0.00;;;;;;;;4781826;29;8862;-94
2022/11/06 00:59:03;;;;;;;;;0.00;0.00;;;;;;;;4782538;29;8876;-94
2022/11/06 01:01:39;;;;;;;;;0.00;0.00;;;;;;;;4783020;29;8860;-95
2022/11/06 01:04:06;;;;;;;;;0.00;0.00;;;;;;;;4768621;30;8883;-94
2022/11/06 01:06:33;;;;;;;;;0.00;0.00;;;;;;;;4781971;29;11732;-95
2022/11/06 01:08:58;;;;;;;;;0.00;0.00;;;;;;;;4782303;29;8840;-94
2022/11/06 01:11:26;;;;;;;;;0.00;0.00;;;;;;;;4781456;29;11808;-91
2022/11/06 01:13:53;;;;;;;;;0.00;0.00;;;;;;;;4782304;29;8852;-95
2022/11/06 01:16:19;;;;;;;;;0.00;0.00;;;;;;;;4782042;29;8882;-94
2022/11/06 01:18:45;;;;;;;;;0.00;0.00;;;;;;;;4782362;29;8880;-94
2022/11/06 01:21:12;;;;;;;;;0.00;0.00;;;;;;;;4782420;29;8978;-95
2022/11/06 01:23:38;;;;;;;;;0.00;0.00;;;;;;;;4770341;29;8896;-94
2022/11/06 01:26:04;;;;;;;;;0.00;0.00;;;;;;;;4753403;30;8896;-94
2022/11/06 01:28:30;;;;;;;;;0.00;0.00;;;;;;;;4764604;29;8790;-94
2022/11/06 01:30:55;;;;;;;;;0.00;0.00;;;;;;;;4767969;30;8882;-94
2022/11/06 01:33:21;;;;;;;;;0.00;0.00;;;;;;;;4768061;30;8880;-94
2022/11/06 01:35:47;;;;;;;;;0.00;0.00;;;;;;;;4768966;30;8872;-94
2022/11/06 01:38:12;;;;;;;;;0.00;0.00;;;;;;;;4774634;29;8968;-95
2022/11/06 01:40:39;;;;;;;;;0.00;0.00;;;;;;;;4774643;29;8968;-93
2022/11/06 01:43:07;;;;;;;;;0.00;0.00;;;;;;;;4770508;29;8806;-95
2022/11/06 01:45:36;;;;;;;;;0.00;0.00;;;;;;;;4770023;29;8861;-94
2022/11/06 01:48:02;;;;;;;;;0.00;0.00;;;;;;;;4770104;29;8854;-94
2022/11/06 01:50:27;;;;;;;;;0.00;0.00;;;;;;;;4769779;29;8878;-94
2022/11/06 01:52:52;;;;;;;;;0.00;0.00;;;;;;;;4769455;29;8900;-94
2022/11/06 01:55:20;;;;;;;;;0.00;0.00;;;;;;;;4769640;29;9330;-94
2022/11/06 01:57:46;;;;;;;;;0.00;0.00;;;;;;;;4769742;29;8857;-94
2022/11/06 02:00:11;;;;;;;;;0.00;0.00;;;;;;;;4770382;29;8841;-94
2022/11/06 02:02:37;;;;;;;;;0.00;0.00;;;;;;;;4770172;29;8862;-95
2022/11/06 02:05:03;;;;;;;;;0.00;0.00;;;;;;;;4768757;29;8857;-94
2022/11/06 02:07:28;;;;;;;;;0.00;0.00;;;;;;;;4781447;29;8951;-93
2022/11/06 02:09:53;;;;;;;;;0.00;0.00;;;;;;;;4782541;29;9072;-93
2022/11/06 02:12:19;;;;;;;;;0.00;0.00;;;;;;;;4784207;29;8860;-93
2022/11/06 02:14:58;;;;;;;;;0.00;0.00;;;;;;;;4755084;30;8868;-94
2022/11/06 02:17:38;;;;;;;;;0.00;0.00;;;;;;;;4784695;29;9215;-94
2022/11/06 02:20:07;;;;;;;;;0.00;0.00;;;;;;;;4784413;29;8913;-93
2022/11/06 02:22:44;;;;;;;;;0.00;0.00;;;;;;;;4754457;30;8856;-95
2022/11/06 02:25:15;;;;;;;;;0.00;0.00;;;;;;;;4784024;29;8856;-95
2022/11/06 02:27:44;;;;;;;;;0.00;0.00;;;;;;;;4781036;29;8930;-94
2022/11/06 02:30:14;;;;;;;;;0.00;0.00;;;;;;;;4754468;30;8960;-94
2022/11/06 02:33:00;;;;;;;;;0.00;0.00;;;;;;;;4754670;30;8880;-94
2022/11/06 02:35:34;;;;;;;;;0.00;0.00;;;;;;;;4754689;30;8860;-94
2022/11/06 02:38:07;;;;;;;;;0.00;0.00;;;;;;;;4754273;30;8859;-95
2022/11/06 02:40:35;;;;;;;;;0.00;0.00;;;;;;;;4754892;29;8906;-93
2022/11/06 02:43:07;;;;;;;;;0.00;0.00;;;;;;;;4772159;29;9223;-94
2022/11/06 02:45:46;;;;;;;;;0.00;0.00;;;;;;;;4772492;29;8929;-94
2022/11/06 02:48:13;;;;;;;;;0.00;0.00;;;;;;;;4772821;29;8830;-94
2022/11/06 02:50:41;;;;;;;;;0.00;0.00;;;;;;;;4773757;29;8842;-94
2022/11/06 02:53:08;;;;;;;;;0.00;0.00;;;;;;;;4774071;29;8848;-94
2022/11/06 02:55:36;;;;;;;;;0.00;0.00;;;;;;;;4772231;30;9802;-93
2022/11/06 02:58:12;;;;;;;;;0.00;0.00;;;;;;;;4774769;30;8870;-94
2022/11/06 03:00:40;;;;;;;;;0.00;0.00;;;;;;;;4773097;30;8862;-93
2022/11/06 03:03:10;;;;;;;;;0.00;0.00;;;;;;;;4756027;30;8942;-95
2022/11/06 03:05:47;;;;;;;;;0.00;0.00;;;;;;;;4751780;30;8899;-94
2022/11/06 03:08:16;;;;;;;;;0.00;0.00;;;;;;;;4757598;30;8783;-93
2022/11/06 03:10:50;;;;;;;;;0.00;0.00;;;;;;;;4755166;30;8830;-93
2022/11/06 03:13:18;;;;;;;;;0.00;0.00;;;;;;;;4751553;30;8857;-94
2022/11/06 03:15:43;;;;;;;;;0.00;0.00;;;;;;;;4751016;30;8853;-95
2022/11/06 03:18:11;;;;;;;;;0.00;0.00;;;;;;;;4766760;30;8855;-94
2022/11/06 03:20:52;;;;;;;;;0.00;0.00;;;;;;;;4767279;30;8854;-94
2022/11/06 03:23:21;;;;;;;;;0.00;0.00;;;;;;;;4756264;30;8845;-94
2022/11/06 03:25:51;;;;;;;;;0.00;0.00;;;;;;;;4751704;30;8861;-94
2022/11/06 03:28:16;;;;;;;;;0.00;0.00;;;;;;;;4750624;30;8931;-94
2022/11/06 03:30:47;;;;;;;;;0.00;0.00;;;;;;;;4744111;30;8879;-93
2022/11/06 03:33:17;;;;;;;;;0.00;0.00;;;;;;;;4768809;30;8843;-95
2022/11/06 03:36:00;;;;;;;;;0.00;0.00;;;;;;;;4768628;30;11655;-94
2022/11/06 03:38:25;;;;;;;;;0.00;0.00;;;;;;;;4753186;30;8849;-95
2022/11/06 03:40:54;;;;;;;;;0.00;0.00;;;;;;;;4750642;30;8925;-95
2022/11/06 03:43:23;;;;;;;;;0.00;0.00;;;;;;;;4750719;30;8861;-94
2022/11/06 03:45:50;;;;;;;;;0.00;0.00;;;;;;;;4750657;30;8809;-94
2022/11/06 03:48:20;;;;;;;;;0.00;0.00;;;;;;;;4750598;30;8862;-94
2022/11/06 03:50:53;;;;;;;;;0.00;0.00;;;;;;;;4750709;30;8842;-95
2022/11/06 03:53:22;;;;;;;;;0.00;0.00;;;;;;;;4758129;30;8869;-95
2022/11/06 03:55:51;;;;;;;;;0.00;0.00;;;;;;;;4750002;30;8873;-94
2022/11/06 03:58:19;;;;;;;;;0.00;0.00;;;;;;;;4750277;30;8868;-95
2022/11/06 04:00:45;;;;;;;;;0.00;0.00;;;;;;;;4750396;30;8854;-95
2022/11/06 04:03:33;;;;;;;;;0.00;0.00;;;;;;;;4750298;30;8962;-94
2022/11/06 04:06:01;;;;;;;;;0.00;0.00;;;;;;;;4741024;30;8802;-95
2022/11/06 04:14:03;;;;;;;;;0.00;0.00;;;;;;;;4752160;30;11649;-93
2022/11/06 04:16:31;;;;;;;;;0.00;0.00;;;;;;;;4750784;30;8948;-94
2022/11/06 04:18:57;;;;;;;;;0.00;0.00;;;;;;;;4753728;30;8868;-94
2022/11/06 04:21:31;;;;;;;;;0.00;0.00;;;;;;;;4753380;30;8857;-93
2022/11/06 04:26:55;;;;;;;;;0.00;0.00;;;;;;;;4751753;30;11677;-94
2022/11/06 04:29:39;;;;;;;;;0.00;0.00;;;;;;;;4750428;30;8912;-94
2022/11/06 04:32:11;;;;;;;;;0.00;0.00;;;;;;;;4749892;30;8867;-95
2022/11/06 04:34:44;;;;;;;;;0.00;0.00;;;;;;;;4751670;30;8984;-94
2022/11/06 04:37:14;;;;;;;;;0.00;0.00;;;;;;;;4750275;30;8842;-93
2022/11/06 04:39:47;;;;;;;;;0.00;0.00;;;;;;;;4749638;30;8853;-94
2022/11/06 04:42:27;;;;;;;;;0.00;0.00;;;;;;;;4759746;30;8872;-94
2022/11/06 04:44:57;;;;;;;;;0.00;0.00;;;;;;;;4764942;30;8873;-94
2022/11/06 04:47:23;;;;;;;;;0.00;0.00;;;;;;;;4764362;30;8834;-95
2022/11/06 04:49:49;;;;;;;;;0.00;0.00;;;;;;;;4764638;30;8845;-94
2022/11/06 04:52:21;;;;;;;;;0.00;0.00;;;;;;;;4766652;30;8932;-95
2022/11/06 04:54:46;;;;;;;;;0.00;0.00;;;;;;;;4767275;30;8878;-95
2022/11/06 04:57:12;;;;;;;;;0.00;0.00;;;;;;;;4767156;30;8859;-94
2022/11/06 04:59:37;;;;;;;;;0.00;0.00;;;;;;;;4767705;30;8863;-94
2022/11/06 05:02:02;;;;;;;;;0.00;0.00;;;;;;;;4767189;30;8859;-94
2022/11/06 05:04:28;;;;;;;;;0.00;0.00;;;;;;;;4767213;30;8882;-93
2022/11/06 05:06:53;;;;;;;;;0.00;0.00;;;;;;;;4765988;30;8895;-94
2022/11/06 05:09:18;;;;;;;;;0.00;0.00;;;;;;;;4767525;30;8847;-94
2022/11/06 05:11:43;;;;;;;;;0.00;0.00;;;;;;;;4767492;30;8893;-94
2022/11/06 05:14:08;;;;;;;;;0.00;0.00;;;;;;;;4767158;30;8886;-94
2022/11/06 05:16:34;;;;;;;;;0.00;0.00;;;;;;;;4766650;30;8862;-93
2022/11/06 05:18:59;;;;;;;;;0.00;0.00;;;;;;;;4766024;30;8863;-93
2022/11/06 05:24:08;;;;;;;;;0.00;0.00;;;;;;;;4768072;30;8851;-94
2022/11/06 05:26:34;;;;;;;;;0.00;0.00;;;;;;;;4766725;30;8889;-94
2022/11/06 05:28:59;;;;;;;;;0.00;0.00;;;;;;;;4751989;30;8863;-94
2022/11/06 05:31:24;;;;;;;;;0.00;0.00;;;;;;;;4767325;30;8859;-94
2022/11/06 05:33:50;;;;;;;;;0.00;0.00;;;;;;;;4761671;30;8880;-95
2022/11/06 05:36:15;;;;;;;;;0.00;0.00;;;;;;;;4750132;30;8877;-96
2022/11/06 05:38:40;;;;;;;;;0.00;0.00;;;;;;;;4749286;30;8884;-94
2022/11/06 05:41:06;;;;;;;;;0.00;0.00;;;;;;;;4767422;30;8952;-93
2022/11/06 05:43:31;;;;;;;;;0.00;0.00;;;;;;;;4755656;30;8873;-94
2022/11/06 05:45:57;;;;;;;;;0.00;0.00;;;;;;;;4756890;30;8882;-95
2022/11/06 05:48:22;;;;;;;;;0.00;0.00;;;;;;;;4756028;30;8837;-94
2022/11/06 05:50:47;;;;;;;;;0.00;0.00;;;;;;;;4754150;30;9046;-93
2022/11/06 05:53:12;;;;;;;;;0.00;0.00;;;;;;;;4752917;30;8870;-95
2022/11/06 05:55:38;;;;;;;;;0.00;0.00;;;;;;;;4752331;30;8862;-94
2022/11/06 05:58:03;;;;;;;;;0.00;0.00;;;;;;;;4752377;30;8977;-94
2022/11/06 06:00:28;;;;;;;;;0.00;0.00;;;;;;;;4753108;30;8954;-94
2022/11/06 06:02:53;;;;;;;;;0.00;0.00;;;;;;;;4753212;30;8858;-95
2022/11/06 06:05:19;;;;;;;;;0.00;0.00;;;;;;;;4755819;30;8879;-94
2022/11/06 06:07:44;;;;;;;;;0.00;0.00;;;;;;;;4755577;30;8869;-95
2022/11/06 06:10:10;;;;;;;;;0.00;0.00;;;;;;;;4767918;30;8873;-95
2022/11/06 06:12:35;;;;;;;;;3.00;3.00;;;;;;;;4752716;30;8916;-95
2022/11/06 06:15:01;;;;;;;;;0.00;0.00;;;;;;;;4752892;30;8881;-95
2022/11/06 06:17:26;;;;;;;;;0.00;0.00;;;;;;;;4752974;30;8989;-94
2022/11/06 06:19:51;;;;;;;;;0.00;0.00;;;;;;;;4768398;30;8919;-94
2022/11/06 06:22:16;;;;;;;;;0.00;0.00;;;;;;;;4753752;30;8873;-94
2022/11/06 06:24:42;;;;;;;;;0.00;0.00;;;;;;;;4754118;30;8913;-95
2022/11/06 06:27:07;;;;;;;;;0.00;0.00;;;;;;;;4755173;30;8892;-94
2022/11/06 06:29:32;;;;;;;;;0.00;0.00;;;;;;;;4770960;30;8945;-94
2022/11/06 06:31:57;;;;;;;;;0.00;0.00;;;;;;;;4771252;30;8847;-94
2022/11/06 06:34:23;;;;;;;;;0.00;0.00;;;;;;;;4755158;30;8881;-93
2022/11/06 06:36:52;;;;;;;;;0.00;0.00;;;;;;;;4768685;30;8862;-95
2022/11/06 06:39:21;;;;;;;;;0.00;0.00;;;;;;;;4769170;30;8823;-92
2022/11/06 06:41:46;;;;;;;;;0.00;0.00;;;;;;;;4766087;30;8841;-92
2022/11/06 06:44:12;;;;;;;;;0.00;0.00;;;;;;;;4751962;30;8885;-92
2022/11/06 06:46:37;;;;;;;;;3.00;3.00;;;;;;;;4750926;30;8869;-93
2022/11/06 06:49:03;;;;;;;;;0.00;0.00;;;;;;;;4751658;30;8853;-91
2022/11/06 06:51:28;;;;;;;;;0.00;0.00;;;;;;;;4764608;30;8862;-92
2022/11/06 06:53:53;;;;;;;;;0.00;0.00;;;;;;;;4766834;30;8894;-92
2022/11/06 06:56:18;;;;;;;;;0.00;0.00;;;;;;;;4766787;30;8875;-92
2022/11/06 06:58:43;;;;;;;;;0.00;0.00;;;;;;;;4766757;30;8967;-93
2022/11/06 07:01:09;;;;;;;;;0.00;0.00;;;;;;;;4752081;30;8946;-93
2022/11/06 07:03:38;;;;;;;;;0.00;0.00;;;;;;;;4764993;30;8873;-92
2022/11/06 07:06:03;;;;;;;;;0.00;0.00;;;;;;;;4754738;30;8802;-92
2022/11/06 07:08:29;;;;;;;;;0.00;0.00;;;;;;;;4755365;30;8938;-92
2022/11/06 07:10:58;;;;;;;;;0.00;0.00;;;;;;;;4755046;30;8876;-92
2022/11/06 07:13:23;;;;;;;;;0.00;0.00;;;;;;;;4752974;30;8793;-91
2022/11/06 07:15:49;;;;;;;;;0.00;0.00;;;;;;;;4750907;30;8853;-92
2022/11/06 07:18:14;;;;;;;;;0.00;0.00;;;;;;;;4752286;30;8833;-95
2022/11/06 07:20:39;;;;;;;;;0.00;0.00;;;;;;;;4750600;30;8850;-94
2022/11/06 07:23:06;;;;;;;;;0.00;0.00;;;;;;;;4751438;30;8862;-94
2022/11/06 07:25:31;;;;;;;;;0.00;0.00;;;;;;;;4751238;30;8870;-94
2022/11/06 07:28:01;;;;;;;;;0.00;0.00;;;;;;;;4758669;30;8863;-93
2022/11/06 07:30:26;;;;;;;;;0.00;0.00;;;;;;;;4767948;30;8847;-91
2022/11/06 07:32:51;;;;;;;;;0.00;0.00;;;;;;;;4768100;30;8871;-92
2022/11/06 07:35:17;;;;;;;;;0.00;0.00;;;;;;;;4768880;30;8873;-90
2022/11/06 07:37:42;;;;;;;;;0.00;0.00;;;;;;;;4767569;30;8874;-90
2022/11/06 07:40:08;;;;;;;;;0.00;0.00;;;;;;;;4766867;30;8839;-90
2022/11/06 07:42:33;;;;;;;;;0.00;0.00;;;;;;;;4766936;30;8835;-90
2022/11/06 07:44:59;;;;;;;;;0.00;0.00;;;;;;;;4766779;30;8863;-83
2022/11/06 07:47:24;;;;;;;;;0.00;0.00;;;;;;;;4767933;30;9691;-85
2022/11/06 07:49:49;;;;;;;;;0.00;0.00;;;;;;;;4767419;30;9597;-84
2022/11/06 07:52:14;;;;;;;;;0.00;0.00;;;;;;;;4758616;30;9412;-84
2022/11/06 07:54:39;;;;;;;;;0.00;0.00;;;;;;;;4767129;29;8873;-83
2022/11/06 07:57:04;;;;;;;;;0.00;0.00;;;;;;;;4785055;29;8934;-83
2022/11/06 07:59:30;;;;;;;;;0.00;0.00;;;;;;;;4785349;29;9529;-84
2022/11/06 08:01:55;;;;;;;;;0.00;0.00;;;;;;;;4785339;29;9576;-84
2022/11/06 08:04:20;;;;;;;;;1.33;1.33;;;;;;;;4769232;29;8877;-86
2022/11/06 08:06:45;;;;;;;;;0.00;0.00;;;;;;;;4765420;29;8892;-86
2022/11/06 08:09:10;;;;;;;;;0.00;0.00;;;;;;;;4771567;29;8969;-86
2022/11/06 08:11:36;;;;;;;;;0.00;0.00;;;;;;;;4768147;29;8957;-86
2022/11/06 08:14:01;;;;;;;;;6.00;6.00;;;;;;;;4768611;29;8865;-87
2022/11/06 08:16:26;;;;;;;;;0.00;0.00;;;;;;;;4784953;29;8856;-87
2022/11/06 08:18:51;;;;;;;;;0.00;0.00;;;;;;;;4762012;29;8898;-88
2022/11/06 08:21:17;;;;;;;;;0.00;0.00;;;;;;;;4751005;30;8892;-85
2022/11/06 08:23:42;;;;;;;;;0.00;0.00;;;;;;;;4752373;29;9412;-85
2022/11/06 08:26:07;;;;;;;;;0.00;0.00;;;;;;;;4767161;29;8901;-84
2022/11/06 08:28:33;;;;;;;;;21.00;21.00;;;;;;;;4767925;29;8861;-84
2022/11/06 08:31:01;;;;;;;;;0.00;0.00;;;;;;;;4784498;29;8861;-85
2022/11/06 08:33:27;;;;;;;;;0.00;0.00;;;;;;;;4768986;29;8851;-84
2022/11/06 08:35:52;;;;;;;;;0.00;0.00;;;;;;;;4766286;29;8942;-85
2022/11/06 08:38:18;;;;;;;;;0.00;0.00;;;;;;;;4772763;29;8891;-88
2022/11/06 08:40:43;;;;;;;;;0.00;0.00;;;;;;;;4765624;29;8859;-88
2022/11/06 08:43:09;;;;;;;;;0.00;0.00;;;;;;;;4749988;29;45494;-88
2022/11/06 08:45:41;;;;;;;;;0.00;0.00;;;;;;;;4772567;29;38159;-92
2022/11/06 08:48:07;;;;;;;;;0.00;0.00;;;;;;;;4750632;29;28546;-88
2022/11/06 08:50:34;;;;;;;;;0.00;0.00;;;;;;;;4749236;30;42915;-87
2022/11/06 08:53:02;;;;;;;;;0.00;0.00;;;;;;;;4748946;29;44688;-87
2022/11/06 08:55:28;;;;;;;;;0.00;0.00;;;;;;;;4764665;29;8927;-89
2022/11/06 08:57:53;;;;;;;;;0.00;0.00;;;;;;;;4766988;29;8926;-87
2022/11/06 09:00:19;;;;;;;;;0.00;0.00;;;;;;;;4749924;29;46155;-86
2022/11/06 09:02:44;;;;;;;;;0.00;0.00;;;;;;;;4766941;29;30862;-88
2022/11/06 09:05:09;;;;;;;;;0.00;0.00;;;;;;;;4783155;29;9283;-85
2022/11/06 09:07:34;;;;;;;;;0.00;0.00;;;;;;;;4783539;29;8838;-85
2022/11/06 09:09:59;;;;;;;;;0.00;0.00;;;;;;;;4781910;29;9472;-85
2022/11/06 09:12:24;;;;;;;;;0.00;0.00;;;;;;;;4766754;29;8865;-86
2022/11/06 09:14:50;;;;;;;;;0.00;0.00;;;;;;;;4768241;29;8881;-85
2022/11/06 09:17:15;;;;;;;;;0.00;0.00;;;;;;;;4780306;29;9046;-85
2022/11/06 09:19:40;;;;;;;;;0.00;0.00;;;;;;;;4787213;29;9522;-85
2022/11/06 09:22:06;;;;;;;;;0.00;0.00;;;;;;;;4770910;29;8854;-85
2022/11/06 09:24:31;;;;;;;;;0.00;0.00;;;;;;;;4787268;29;8889;-86
2022/11/06 09:26:56;;;;;;;;;0.00;0.00;;;;;;;;4769254;29;9593;-86
2022/11/06 09:29:22;;;;;;;;;0.00;0.00;;;;;;;;4786615;29;9142;-87
2022/11/06 09:31:47;;;;;;;;;0.00;0.00;;;;;;;;4757646;29;44762;-87
2022/11/06 09:34:12;;;;;;;;;0.00;0.00;;;;;;;;4766912;29;28800;-86
2022/11/06 09:36:37;;;;;;;;;0.00;0.00;;;;;;;;4748033;29;28614;-85
2022/11/06 09:39:02;;;;;;;;;0.00;0.00;;;;;;;;4750291;29;45477;-86
2022/11/06 09:41:48;;;;;;;;;0.00;0.00;;;;;;;;4760742;29;45404;-86
2022/11/06 09:44:21;;;;;;;;;0.00;0.00;;;;;;;;4763331;29;27869;-85
2022/11/06 09:46:47;;;;;;;;;0.00;0.00;;;;;;;;4767783;29;28411;-89
2022/11/06 09:49:12;;;;;;;;;0.00;0.00;;;;;;;;4774873;29;8846;-88
2022/11/06 09:51:49;;;;;;;;;0.00;0.00;;;;;;;;4782189;29;8865;-88
2022/11/06 09:54:18;;;;;;;;;0.00;0.00;;;;;;;;4775292;29;8860;-87
2022/11/06 09:56:46;;;;;;;;;0.00;0.00;;;;;;;;4787247;29;8793;-86
2022/11/06 09:59:14;;;;;;;;;0.00;0.00;;;;;;;;4784466;29;8969;-86
2022/11/06 10:01:45;;;;;;;;;0.00;0.00;;;;;;;;4787770;29;8825;-86
2022/11/06 10:04:24;;;;;;;;;0.00;0.00;;;;;;;;4771281;29;8892;-86
2022/11/06 10:06:49;;;;;;;;;0.00;0.00;;;;;;;;4771715;29;8934;-88
2022/11/06 10:09:16;;;;;;;;;0.00;0.00;;;;;;;;4761005;29;27818;-88
2022/11/06 10:11:49;;;;;;;;;0.00;0.00;;;;;;;;4751148;29;44868;-87
2022/11/06 10:14:27;;;;;;;;;0.00;0.00;;;;;;;;4760841;29;45327;-87
2022/11/06 10:16:55;;;;;;;;;0.00;0.00;;;;;;;;4737840;29;45973;-87
2022/11/06 10:19:35;;;;;;;;;0.00;0.00;;;;;;;;4773444;29;46615;-87
2022/11/06 10:22:06;;;;;;;;;0.00;0.00;;;;;;;;4762338;29;27913;-88
2022/11/06 10:24:40;;;;;;;;;0.00;0.00;;;;;;;;4768329;29;30165;-87
2022/11/06 10:27:13;;;;;;;;;0.00;0.00;;;;;;;;4758397;29;44714;-87
2022/11/06 10:29:47;;;;;;;;;0.00;0.00;;;;;;;;4722901;30;47653;-86
2022/11/06 10:32:16;;;;;;;;;0.00;0.00;;;;;;;;4748101;30;46165;-87
2022/11/06 10:34:47;;;;;;;;;0.00;0.00;;;;;;;;4762811;29;27832;-87
2022/11/06 10:37:19;;;;;;;;;0.00;0.00;;;;;;;;4754193;29;45230;-86
2022/11/06 10:39:45;;;;;;;;;0.00;0.00;;;;;;;;4751867;29;45560;-87
2022/11/06 10:42:16;;;;;;;;;0.00;0.00;;;;;;;;4740334;29;45379;-87
2022/11/06 10:44:45;;;;;;;;;0.00;0.00;;;;;;;;4762530;29;42278;-85
2022/11/06 10:47:16;;;;;;;;;0.00;0.00;;;;;;;;4775910;29;44468;-88
2022/11/06 10:49:48;;;;;;;;;0.00;0.00;;;;;;;;4743235;29;46491;-86
2022/11/06 10:52:32;;;;;;;;;0.00;0.00;;;;;;;;4758070;29;45458;-87
2022/11/06 10:54:57;;;;;;;;;0.00;0.00;;;;;;;;4774319;29;45342;-87
2022/11/06 10:57:36;;;;;;;;;0.00;0.00;;;;;;;;4745540;29;27805;-87
2022/11/06 11:00:09;;;;;;;;;0.00;0.00;;;;;;;;4763824;29;28706;-87
2022/11/06 11:02:38;;;;;;;;;0.00;0.00;;;;;;;;4759067;29;44801;-87
2022/11/06 11:05:10;;;;;;;;;0.00;0.00;;;;;;;;4758557;29;28465;-87
2022/11/06 11:07:35;;;;;;;;;2.00;0.67;;;;;;;;4743420;30;45680;-88
2022/11/06 11:10:21;;;;;;;;;0.00;0.00;;;;;;;;4762755;29;28528;-87
2022/11/06 11:12:46;;;;;;;;;0.00;0.00;;;;;;;;4745688;29;45547;-86
2022/11/06 11:15:13;;;;;;;;;0.00;0.00;;;;;;;;4739562;29;28486;-87
2022/11/06 11:17:39;;;;;;;;;0.00;0.00;;;;;;;;4756429;29;28518;-88
2022/11/06 11:20:25;;;;;;;;;0.00;0.00;;;;;;;;4762066;29;9765;-89
2022/11/06 11:23:03;;;;;;;;;0.00;0.00;;;;;;;;4761063;29;8969;-88
2022/11/06 11:25:28;;;;;;;;;0.00;0.00;;;;;;;;4748467;30;28514;-89
2022/11/06 11:27:53;;;;;;;;;0.00;0.00;;;;;;;;4757150;29;28517;-89
2022/11/06 11:30:20;;;;;;;;;0.00;0.00;;;;;;;;4739733;29;29280;-86
2022/11/06 11:32:45;;;;;;;;;0.00;0.00;;;;;;;;4740433;30;29438;-87
2022/11/06 11:35:15;;;;;;;;;0.00;0.00;;;;;;;;4759608;29;28473;-87
2022/11/06 11:37:40;;;;;;;;;1.00;1.00;;;;;;;;4735534;30;28558;-87
2022/11/06 11:40:24;;;;;;;;;0.00;0.00;;;;;;;;4750606;29;31442;-85
2022/11/06 11:42:49;;;;;;;;;0.00;0.00;;;;;;;;4742719;30;29553;-87
2022/11/06 11:45:16;;;;;;;;;0.00;0.00;;;;;;;;4679618;29;1387786;-87
2022/11/06 11:47:43;;;;;;;;;0.00;0.00;;;;;;;;4762087;29;30602;-90
2022/11/06 11:50:20;;;;;;;;;0.00;0.00;;;;;;;;4760619;29;8948;-85
2022/11/06 11:52:46;;;;;;;;;0.00;0.00;;;;;;;;4779950;29;11726;-85
2022/11/06 11:55:16;;;;;;;;;0.00;0.00;;;;;;;;4775973;29;11707;-88
2022/11/06 12:01:33;;;;;;;;;0.00;0.00;;;;;;;;1199146;30;231958744;-90
2022/11/06 12:03:58;;;;;;;;;0.00;0.00;;;;;;;;1820850;30;42029125;-91
2022/11/06 12:06:24;;;;;;;;;0.00;0.00;;;;;;;;1960306;29;42404248;-90
2022/11/06 12:08:51;;;;;;;;;0.00;0.00;;;;;;;;4700886;30;1401367;-91
2022/11/06 12:11:22;;;;;;;;;0.00;0.00;;;;;;;;4759444;29;29056;-91
2022/11/06 12:14:06;;;;;;;;;0.00;0.00;;;;;;;;4743129;29;28611;-91
2022/11/06 12:16:31;;;;;;;;;0.00;0.00;;;;;;;;4752253;29;28195;-87
2022/11/06 12:18:57;;;;;;;;;0.00;0.00;;;;;;;;4753942;29;28781;-89
2022/11/06 12:21:28;;;;;;;;;1.00;1.00;;;;;;;;4760186;29;28351;-86
2022/11/06 12:24:06;;;;;;;;;0.00;0.00;;;;;;;;4757073;29;28459;-86
2022/11/06 12:26:34;;;;;;;;;0.00;0.00;;;;;;;;4752415;29;28980;-85
2022/11/06 12:29:05;;;;;;;;;0.00;0.00;;;;;;;;4750364;29;70959;-86
2022/11/06 12:31:30;;;;;;;;;0.00;0.00;;;;;;;;4763112;29;28985;-86
2022/11/06 12:33:55;;;;;;;;;0.75;0.00;;;;;;;;4760578;29;62271;-87
2022/11/06 12:36:24;;;;;;;;;0.00;0.00;;;;;;;;4635566;29;2692050;-87
2022/11/06 12:39:12;;;;;;;;;0.00;0.00;;;;;;;;4759633;29;38332;-87
2022/11/06 12:42:22;;;;;;;;;;;;;;;;;;1574669;29;127665730;-87
2022/11/06 12:44:47;;;;;;;;;0.00;0.00;;;;;;;;3304860;29;25216157;-86
2022/11/06 12:47:18;;;;;;;;;2.00;2.00;;;;;;;;4759824;29;8853;-86
2022/11/06 12:49:46;;;;;;;;;0.00;0.00;;;;;;;;4759175;29;8970;-86
2022/11/06 12:52:21;;;;;;;;;0.00;0.00;;;;;;;;4762721;29;9835;-86
2022/11/06 12:54:52;;;;;;;;;0.00;0.00;;;;;;;;4762477;29;8861;-87
2022/11/06 12:57:36;;;;;;;;;0.00;0.00;;;;;;;;4755150;30;9699;-87
2022/11/06 13:00:21;;;;;;;;;0.00;0.00;;;;;;;;4757203;29;8844;-87
2022/11/06 13:03:07;;;;;;;;;0.00;0.00;;;;;;;;4763766;29;8937;-87
2022/11/06 13:05:54;;;;;;;;;0.00;0.00;;;;;;;;4763330;29;8872;-86
2022/11/06 13:08:22;;;;;;;;;0.00;0.00;;;;;;;;4773475;29;8842;-87
2022/11/06 13:11:02;;;;;;;;;0.00;0.00;;;;;;;;4775207;29;8841;-84
2022/11/06 13:13:33;;;;;;;;;0.00;0.00;;;;;;;;4779172;29;8844;-85
2022/11/06 13:16:18;;;;;;;;;0.00;0.00;;;;;;;;4759961;29;8939;-86
2022/11/06 13:18:45;;;;;;;;;0.00;0.00;;;;;;;;4768751;29;8873;-86
2022/11/06 13:21:10;;;;;;;;;0.00;0.00;;;;;;;;4769260;29;8840;-85
2022/11/06 13:23:42;;;;;;;;;0.00;0.00;;;;;;;;4779984;29;12482;-84
2022/11/06 13:26:37;;;;;;;;;0.00;0.00;;;;;;;;4764874;29;10417;-84
2022/11/06 13:29:04;;;;;;;;;0.00;0.00;;;;;;;;4761587;29;8868;-84
2022/11/06 13:31:38;;;;;;;;;0.00;0.00;;;;;;;;4762943;29;8850;-85
2022/11/06 13:34:04;;;;;;;;;0.00;0.00;;;;;;;;4767717;29;8849;-84
2022/11/06 13:36:30;;;;;;;;;0.00;0.00;;;;;;;;4142142;29;13362052;-84
2022/11/06 13:42:55;;;;;;;;;;;;;;;;;;596224;29;234529099;-84
2022/11/06 13:47:11;;;;;;;;;0.00;0.00;;;;;;;;560265;30;183720775;-85
2022/11/06 13:55:39;;;;;;;;;0.00;0.00;;;;;;;;162586;30;257091725;-83
2022/11/06 14:01:42;;;;;;;;;0.00;0.00;;;;;;;;2;173416501;173416501;-85
2022/11/06 14:08:46;;;;;;;;;0.00;0.00;;;;;;;;496434;30;186402464;-85
2022/11/06 14:12:44;;;;;;;;;0.00;0.00;;;;;;;;866037;30;132904389;-86
2022/11/06 14:18:59;;;;;;;;;0.00;0.00;;;;;;;;2;230856779;230856779;-85
2022/11/06 14:21:26;;;;;;;;;0.00;0.00;;;;;;;;4098454;29;10541000;-84
2022/11/06 14:24:11;;;;;;;;;0.00;0.00;;;;;;;;3768111;29;26932026;-87
2022/11/06 14:26:38;;;;;;;;;0.00;0.00;;;;;;;;4145552;29;11708474;-85
2022/11/06 14:35:21;;;;;;;;;;;;;;;;;;171960;29;237155035;-84
2022/11/06 14:38:09;;;;;;;;;0.00;0.00;;;;;;;;2776829;30;43608423;-84
2022/11/06 14:40:42;;;;;;;;;0.00;0.00;;;;;;;;2282063;29;30899518;-84
2022/11/06 14:43:31;;;;;;;;;0.00;0.00;;;;;;;;4412550;30;5622459;-84
2022/11/06 14:45:56;;;;;;;;;0.00;0.00;;;;;;;;4737006;29;33325;-85
2022/11/06 14:48:30;;;;;;;;;1.50;1.50;;;;;;;;4739485;29;29003;-84
2022/11/06 14:50:56;;;;;;;;;0.00;0.00;;;;;;;;4717808;29;412024;-84
2022/11/06 14:53:28;;;;;;;;;0.00;0.00;;;;;;;;4674052;29;1064005;-85
2022/11/06 14:57:34;;;;;;;;;11.00;2.50;;;;;;;;3397447;29;52005002;-85
2022/11/06 15:00:03;;;;;;;;;0.00;0.00;;;;;;;;1069895;29;76703912;-85
2022/11/06 15:02:29;;;;;;;;;0.00;0.00;;;;;;;;3658783;30;31143198;-86
2022/11/06 15:05:02;;;;;;;;;0.00;0.00;;;;;;;;3820848;29;8518781;-85
2022/11/06 15:07:33;;;;;;;;;0.00;0.00;;;;;;;;1927696;29;50298889;-86
2022/11/06 15:10:24;;;;;;;;;0.00;0.00;;;;;;;;1295273;30;37694128;-85
2022/11/06 15:13:10;;;;;;;;;0.00;0.00;;;;;;;;961937;29;62917519;-87
2022/11/06 15:16:14;;;;;;;;;;;;;;;;;;342261;30;82276395;-87
2022/11/06 15:20:39;;;;;;;;;0.00;0.00;;;;;;;;505414;30;117071726;-87
2022/11/06 15:23:54;;;;;;;;;0.00;0.00;;;;;;;;446170;30;81143031;-87
2022/11/06 15:26:56;;;;;;;;;0.00;0.00;;;;;;;;826250;30;33461450;-87
2022/11/06 15:30:04;;;;;;;;;;;;;;;;;;101753;30;66544502;-86
2022/11/06 15:33:23;;;;;;;;;0.00;0.00;;;;;;;;6;12463649;83269344;-86
2022/11/06 15:35:57;;;;;;;;;0.00;0.00;;;;;;;;693066;29;72251429;-86
2022/11/06 15:38:58;;;;;;;;;0.00;0.00;;;;;;;;811754;29;33479658;-86
2022/11/06 15:41:24;;;;;;;;;0.00;0.00;;;;;;;;4440307;29;7741346;-86
2022/11/06 15:43:50;;;;;;;;;0.00;0.00;;;;;;;;1030373;29;33560497;-85
2022/11/06 15:46:26;;;;;;;;;0.25;0.25;;;;;;;;1841356;29;35021437;-86
2022/11/06 15:49:14;;;;;;;;;0.00;0.00;;;;;;;;4515890;29;6049106;-87
2022/11/06 15:51:39;;;;;;;;;0.00;0.00;;;;;;;;2634588;29;21124659;-89
2022/11/06 15:54:45;;;;;;;;;;;;;;;;;;2157637;29;62573095;-86